Time;durP1;ratioP1;P1;durP2;ratioP2;P2;SDS_P1;SDS_P2;PMS_P1;PMS_P2;Temp;Humidity;BMP_temperature;BMP_pressure;BME280_temperature;BME280_humidity;BME280_pressure;Samples;Min_cycle;Max_cycle;Signal;HPM_P1;HPM_P2
2024/03/22 00:00:03;;;;;;;;;;;;;;;;;;5120370;28;19998;-29
2024/03/22 00:02:29;;;;;;;;;;;;;;;;;;5120587;28;19908;-28
2024/03/22 00:04:54;;;;;;;;;;;;;;;;;;5120352;28;19908;-28
2024/03/22 00:07:20;;;;;;;;;;;;;;;;;;5119863;28;19946;-28
2024/03/22 00:09:46;;;;;;;;;;;;;;;;;;5120367;28;19907;-28
2024/03/22 00:12:12;;;;;;;;;;;;;;;;;;5120290;28;19950;-28
2024/03/22 00:14:38;;;;;;;;;;;;;;;;;;5120213;28;20466;-28
2024/03/22 00:17:04;;;;;;;;;;;;;;;;;;5120372;28;19918;-28
2024/03/22 00:19:30;;;;;;;;;;;;;;;;;;5120340;28;20275;-28
2024/03/22 00:21:56;;;;;;;;;;;;;;;;;;5119605;28;19908;-28
2024/03/22 00:24:22;;;;;;;;;;;;;;;;;;5119990;28;19911;-28
2024/03/22 00:26:48;;;;;;;;;;;;;;;;;;5120119;28;19912;-28
2024/03/22 00:29:14;;;;;;;;;;;;;;;;;;5119917;28;19952;-28
2024/03/22 00:31:40;;;;;;;;;;;;;;;;;;5120025;28;19908;-30
2024/03/22 00:34:06;;;;;;;;;;;;;;;;;;5120006;28;19914;-29
2024/03/22 00:36:32;;;;;;;;;;;;;;;;;;5120224;28;19912;-28
2024/03/22 00:38:58;;;;;;;;;;;;;;;;;;5101476;28;20014;-28
2024/03/22 00:41:24;;;;;;;;;;;;;;;;;;5120004;28;19912;-28
2024/03/22 00:43:49;;;;;;;;;;;;;;;;;;5119605;28;20019;-28
2024/03/22 00:46:15;;;;;;;;;;;;;;;;;;5119304;28;19919;-29
2024/03/22 00:48:41;;;;;;;;;;;;;;;;;;5119703;28;19908;-29
2024/03/22 00:51:07;;;;;;;;;;;;;;;;;;5119636;28;20375;-28
2024/03/22 00:53:33;;;;;;;;;;;;;;;;;;5119414;28;19912;-28
2024/03/22 00:55:59;;;;;;;;;;;;;;;;;;5119849;28;19915;-28
2024/03/22 00:58:25;;;;;;;;;;;;;;;;;;5119233;28;20358;-28
2024/03/22 01:00:51;;;;;;;;;;;;;;;;;;5119560;28;19908;-28
2024/03/22 01:03:17;;;;;;;;;;;;;;;;;;5119452;28;19908;-28
2024/03/22 01:05:44;;;;;;;;;;;;;;;;;;5119282;28;19955;-30
2024/03/22 01:08:10;;;;;;;;;;;;;;;;;;5119305;28;19986;-29
2024/03/22 01:10:36;;;;;;;;;;;;;;;;;;5118889;28;19954;-28
2024/03/22 01:13:02;;;;;;;;;;;;;;;;;;5119281;28;19908;-28
2024/03/22 01:15:28;;;;;;;;;;;;;;;;;;5118977;28;19999;-30
2024/03/22 01:17:54;;;;;;;;;;;;;;;;;;5119282;28;20264;-28
2024/03/22 01:20:20;;;;;;;;;;;;;;;;;;5119312;28;19915;-29
2024/03/22 01:22:46;;;;;;;;;;;;;;;;;;5119135;28;19961;-29
2024/03/22 01:25:12;;;;;;;;;;;;;;;;;;5119042;28;19915;-28
2024/03/22 01:27:38;;;;;;;;;;;;;;;;;;5118798;28;19916;-29
2024/03/22 01:30:04;;;;;;;;;;;;;;;;;;5118710;28;20006;-28
2024/03/22 01:32:30;;;;;;;;;;;;;;;;;;5118907;28;19962;-30
2024/03/22 01:34:56;;;;;;;;;;;;;;;;;;5118884;28;20259;-31
2024/03/22 01:37:22;;;;;;;;;;;;;;;;;;5119225;28;20064;-29
2024/03/22 01:39:48;;;;;;;;;;;;;;;;;;5118664;28;19908;-28
2024/03/22 01:42:14;;;;;;;;;;;;;;;;;;5118785;28;19919;-28
2024/03/22 01:44:40;;;;;;;;;;;;;;;;;;5119038;28;19955;-28
2024/03/22 01:47:06;;;;;;;;;;;;;;;;;;5118715;28;19912;-28
2024/03/22 01:49:32;;;;;;;;;;;;;;;;;;5118442;28;19914;-30
2024/03/22 01:51:58;;;;;;;;;;;;;;;;;;5118442;28;19908;-28
2024/03/22 01:54:24;;;;;;;;;;;;;;;;;;5100713;28;20378;-28
2024/03/22 01:56:50;;;;;;;;;;;;;;;;;;5118575;28;19908;-28
2024/03/22 01:59:16;;;;;;;;;;;;;;;;;;5118881;28;19915;-28
2024/03/22 02:01:42;;;;;;;;;;;;;;;;;;5118553;28;19907;-29
2024/03/22 02:04:08;;;;;;;;;;;;;;;;;;5118536;28;20260;-29
2024/03/22 02:06:34;;;;;;;;;;;;;;;;;;5118324;28;19934;-28
2024/03/22 02:09:00;;;;;;;;;;;;;;;;;;5118238;28;19908;-28
2024/03/22 02:11:26;;;;;;;;;;;;;;;;;;5118450;28;19957;-30
2024/03/22 02:13:52;;;;;;;;;;;;;;;;;;5118436;28;20274;-29
2024/03/22 02:16:18;;;;;;;;;;;;;;;;;;5118697;28;19908;-28
2024/03/22 02:18:47;;;;;;;;;;;;;;;;;;5118293;28;19912;-28
2024/03/22 02:21:13;;;;;;;;;;;;;;;;;;5118232;28;19912;-28
2024/03/22 02:23:39;;;;;;;;;;;;;;;;;;5118185;28;19915;-28
2024/03/22 02:26:05;;;;;;;;;;;;;;;;;;5118231;28;19912;-28
2024/03/22 02:28:31;;;;;;;;;;;;;;;;;;5118107;28;19915;-31
2024/03/22 02:30:57;;;;;;;;;;;;;;;;;;5117906;28;19958;-30
2024/03/22 02:33:23;;;;;;;;;;;;;;;;;;5118328;28;19911;-29
2024/03/22 02:35:49;;;;;;;;;;;;;;;;;;5118547;28;19908;-28
2024/03/22 02:38:15;;;;;;;;;;;;;;;;;;5118071;28;19956;-29
2024/03/22 02:40:41;;;;;;;;;;;;;;;;;;5118515;28;20351;-28
2024/03/22 02:43:07;;;;;;;;;;;;;;;;;;5118154;28;19907;-28
2024/03/22 02:45:33;;;;;;;;;;;;;;;;;;5118730;28;20333;-29
2024/03/22 02:47:59;;;;;;;;;;;;;;;;;;5122019;28;19916;-29
2024/03/22 02:50:25;;;;;;;;;;;;;;;;;;5122324;28;19952;-31
2024/03/22 02:52:51;;;;;;;;;;;;;;;;;;5121987;28;19903;-29
2024/03/22 02:55:17;;;;;;;;;;;;;;;;;;5122100;28;19908;-29
2024/03/22 02:57:43;;;;;;;;;;;;;;;;;;5121644;28;19949;-27
2024/03/22 03:00:09;;;;;;;;;;;;;;;;;;5121971;28;20275;-30
2024/03/22 03:02:35;;;;;;;;;;;;;;;;;;5121779;28;19908;-29
2024/03/22 03:05:01;;;;;;;;;;;;;;;;;;5121803;28;20024;-28
2024/03/22 03:07:30;;;;;;;;;;;;;;;;;;5121179;28;19920;-28
2024/03/22 03:09:55;;;;;;;;;;;;;;;;;;5121937;28;20316;-29
2024/03/22 03:12:21;;;;;;;;;;;;;;;;;;5121583;28;19908;-28
2024/03/22 03:14:47;;;;;;;;;;;;;;;;;;5121417;28;20363;-29
2024/03/22 03:17:13;;;;;;;;;;;;;;;;;;5121359;28;19917;-28
2024/03/22 03:19:39;;;;;;;;;;;;;;;;;;5121301;28;20278;-31
2024/03/22 03:22:05;;;;;;;;;;;;;;;;;;5121613;28;20014;-28
2024/03/22 03:24:31;;;;;;;;;;;;;;;;;;5121180;28;19908;-30
2024/03/22 03:26:57;;;;;;;;;;;;;;;;;;5121508;28;19978;-30
2024/03/22 03:29:23;;;;;;;;;;;;;;;;;;5121254;28;20385;-31
2024/03/22 03:31:49;;;;;;;;;;;;;;;;;;5121524;28;19908;-30
2024/03/22 03:34:15;;;;;;;;;;;;;;;;;;5121044;28;19911;-29
2024/03/22 03:36:41;;;;;;;;;;;;;;;;;;5121167;28;19907;-28
2024/03/22 03:39:07;;;;;;;;;;;;;;;;;;5121249;28;19914;-28
2024/03/22 03:41:33;;;;;;;;;;;;;;;;;;5120828;28;19908;-29
2024/03/22 03:43:59;;;;;;;;;;;;;;;;;;5120900;28;19912;-28
2024/03/22 03:46:25;;;;;;;;;;;;;;;;;;5120993;28;19964;-29
2024/03/22 03:48:51;;;;;;;;;;;;;;;;;;5121007;28;19908;-29
2024/03/22 03:51:17;;;;;;;;;;;;;;;;;;5121086;28;20733;-29
2024/03/22 03:53:43;;;;;;;;;;;;;;;;;;5121007;28;19908;-29
2024/03/22 03:56:09;;;;;;;;;;;;;;;;;;5120578;28;19991;-28
2024/03/22 03:58:35;;;;;;;;;;;;;;;;;;5120729;28;19908;-28
2024/03/22 04:01:01;;;;;;;;;;;;;;;;;;5120711;28;19904;-28
2024/03/22 04:03:27;;;;;;;;;;;;;;;;;;5120367;28;19938;-29
2024/03/22 04:05:53;;;;;;;;;;;;;;;;;;5120142;28;19920;-28
2024/03/22 04:08:19;;;;;;;;;;;;;;;;;;5120787;28;20411;-28
2024/03/22 04:10:45;;;;;;;;;;;;;;;;;;5120736;28;19911;-29
2024/03/22 04:13:11;;;;;;;;;;;;;;;;;;5120237;28;20293;-28
2024/03/22 04:15:36;;;;;;;;;;;;;;;;;;5120676;28;19914;-29
2024/03/22 04:18:02;;;;;;;;;;;;;;;;;;5120344;28;19912;-28
2024/03/22 04:20:28;;;;;;;;;;;;;;;;;;5120110;28;19915;-29
2024/03/22 04:22:54;;;;;;;;;;;;;;;;;;5120117;28;19957;-28
2024/03/22 04:25:20;;;;;;;;;;;;;;;;;;5120073;28;19908;-28
2024/03/22 04:27:46;;;;;;;;;;;;;;;;;;5120482;28;19953;-29
2024/03/22 04:30:12;;;;;;;;;;;;;;;;;;5119921;28;19908;-28
2024/03/22 04:32:38;;;;;;;;;;;;;;;;;;5119951;28;19914;-28
2024/03/22 04:35:04;;;;;;;;;;;;;;;;;;5120018;28;20366;-28
2024/03/22 04:37:30;;;;;;;;;;;;;;;;;;5120121;28;19915;-28
2024/03/22 04:39:56;;;;;;;;;;;;;;;;;;5119957;28;19947;-28
2024/03/22 04:42:22;;;;;;;;;;;;;;;;;;5132976;27;19912;-28
2024/03/22 04:44:48;;;;;;;;;;;;;;;;;;5140467;27;19968;-30
2024/03/22 04:47:14;;;;;;;;;;;;;;;;;;5140056;27;19935;-28
2024/03/22 04:49:40;;;;;;;;;;;;;;;;;;5140368;27;19908;-29
2024/03/22 04:52:06;;;;;;;;;;;;;;;;;;5140337;27;19903;-31
2024/03/22 04:54:32;;;;;;;;;;;;;;;;;;5140426;27;19907;-28
2024/03/22 04:56:59;;;;;;;;;;;;;;;;;;5139919;27;19962;-29
2024/03/22 04:59:25;;;;;;;;;;;;;;;;;;5140175;27;19911;-28
2024/03/22 05:01:51;;;;;;;;;;;;;;;;;;5140222;27;20412;-28
2024/03/22 05:04:17;;;;;;;;;;;;;;;;;;5140029;27;19910;-28
2024/03/22 05:06:43;;;;;;;;;;;;;;;;;;5139714;27;19972;-29
2024/03/22 05:09:10;;;;;;;;;;;;;;;;;;5139048;27;19926;-29
2024/03/22 05:11:36;;;;;;;;;;;;;;;;;;5140169;27;19994;-28
2024/03/22 05:14:02;;;;;;;;;;;;;;;;;;5139847;27;19955;-29
2024/03/22 05:16:28;;;;;;;;;;;;;;;;;;5139243;27;20289;-29
2024/03/22 05:18:54;;;;;;;;;;;;;;;;;;5139993;27;19994;-29
2024/03/22 05:21:21;;;;;;;;;;;;;;;;;;5139575;27;19950;-28
2024/03/22 05:23:47;;;;;;;;;;;;;;;;;;5139483;27;19915;-30
2024/03/22 05:26:13;;;;;;;;;;;;;;;;;;5139241;27;19915;-29
2024/03/22 05:28:39;;;;;;;;;;;;;;;;;;5139718;27;19914;-28
2024/03/22 05:31:05;;;;;;;;;;;;;;;;;;5139518;27;19907;-28
2024/03/22 05:33:32;;;;;;;;;;;;;;;;;;5139287;27;20430;-28
2024/03/22 05:35:59;;;;;;;;;;;;;;;;;;5139209;27;20389;-31
2024/03/22 05:38:25;;;;;;;;;;;;;;;;;;5120876;27;19914;-28
2024/03/22 05:40:50;;;;;;;;;;;;;;;;;;5139428;27;19910;-28
2024/03/22 05:43:16;;;;;;;;;;;;;;;;;;5139230;27;20277;-30
2024/03/22 05:45:42;;;;;;;;;;;;;;;;;;5139040;27;19915;-29
2024/03/22 05:48:08;;;;;;;;;;;;;;;;;;5138319;27;19959;-29
2024/03/22 05:50:34;;;;;;;;;;;;;;;;;;5137164;27;20406;-30
2024/03/22 05:53:00;;;;;;;;;;;;;;;;;;5138253;27;19903;-29
2024/03/22 05:55:31;;;;;;;;;;;;;;;;;;5137084;27;19908;-29
2024/03/22 05:57:56;;;;;;;;;;;;;;;;;;5139189;27;19989;-28
2024/03/22 06:00:22;;;;;;;;;;;;;;;;;;5139443;28;19950;-29
2024/03/22 06:02:48;;;;;;;;;;;;;;;;;;5139055;28;19907;-29
2024/03/22 06:05:14;;;;;;;;;;;;;;;;;;5139233;28;19942;-28
2024/03/22 06:07:42;;;;;;;;;;;;;;;;;;5139100;28;19918;-29
2024/03/22 06:10:08;;;;;;;;;;;;;;;;;;5138922;28;19908;-28
2024/03/22 06:12:33;;;;;;;;;;;;;;;;;;5139047;28;19907;-28
2024/03/22 06:14:59;;;;;;;;;;;;;;;;;;5139330;28;19907;-28
2024/03/22 06:17:25;;;;;;;;;;;;;;;;;;5138785;28;19914;-28
2024/03/22 06:19:51;;;;;;;;;;;;;;;;;;5139859;27;20366;-29
2024/03/22 06:22:17;;;;;;;;;;;;;;;;;;5142996;27;19958;-30
2024/03/22 06:24:43;;;;;;;;;;;;;;;;;;5143296;27;19957;-28
2024/03/22 06:27:09;;;;;;;;;;;;;;;;;;5142804;27;19912;-28
2024/03/22 06:29:35;;;;;;;;;;;;;;;;;;5142881;27;19907;-28
2024/03/22 06:32:01;;;;;;;;;;;;;;;;;;5143128;27;19971;-28
2024/03/22 06:34:27;;;;;;;;;;;;;;;;;;5142788;27;20001;-31
2024/03/22 06:36:53;;;;;;;;;;;;;;;;;;5142826;27;19916;-28
2024/03/22 06:39:19;;;;;;;;;;;;;;;;;;5142661;27;19903;-28
2024/03/22 06:41:46;;;;;;;;;;;;;;;;;;5142910;27;19908;-28
2024/03/22 06:44:13;;;;;;;;;;;;;;;;;;5142779;27;19911;-28
2024/03/22 06:46:39;;;;;;;;;;;;;;;;;;5142516;27;19912;-29
2024/03/22 06:49:05;;;;;;;;;;;;;;;;;;5142688;27;19914;-29
2024/03/22 06:51:31;;;;;;;;;;;;;;;;;;5142228;27;19914;-28
2024/03/22 06:53:57;;;;;;;;;;;;;;;;;;5142366;27;19963;-29
2024/03/22 06:56:23;;;;;;;;;;;;;;;;;;5142534;27;19907;-28
2024/03/22 06:58:49;;;;;;;;;;;;;;;;;;5142379;27;19914;-28
2024/03/22 07:01:15;;;;;;;;;;;;;;;;;;5142279;27;19943;-28
2024/03/22 07:03:45;;;;;;;;;;;;;;;;;;5142460;27;19907;-29
2024/03/22 07:06:11;;;;;;;;;;;;;;;;;;5142146;27;19924;-28
2024/03/22 07:08:37;;;;;;;;;;;;;;;;;;5142503;27;19929;-28
2024/03/22 07:11:03;;;;;;;;;;;;;;;;;;5142336;27;19912;-28
2024/03/22 07:13:29;;;;;;;;;;;;;;;;;;5141985;27;19911;-29
2024/03/22 07:15:55;;;;;;;;;;;;;;;;;;5142154;27;19915;-28
2024/03/22 07:18:21;;;;;;;;;;;;;;;;;;5142365;27;20445;-28
2024/03/22 07:20:47;;;;;;;;;;;;;;;;;;5142172;27;19914;-28
2024/03/22 07:23:13;;;;;;;;;;;;;;;;;;5141870;27;19908;-28
2024/03/22 07:25:42;;;;;;;;;;;;;;;;;;5141997;27;20252;-31
2024/03/22 07:28:08;;;;;;;;;;;;;;;;;;5141474;27;19911;-28
2024/03/22 07:30:35;;;;;;;;;;;;;;;;;;5141729;27;19960;-28
2024/03/22 07:33:01;;;;;;;;;;;;;;;;;;5141454;27;19907;-28
2024/03/22 07:35:27;;;;;;;;;;;;;;;;;;5141580;27;20006;-28
2024/03/22 07:37:53;;;;;;;;;;;;;;;;;;5141717;27;19907;-29
2024/03/22 07:40:20;;;;;;;;;;;;;;;;;;5141239;27;19907;-28
2024/03/22 07:42:46;;;;;;;;;;;;;;;;;;5141201;27;19914;-29
2024/03/22 07:45:12;;;;;;;;;;;;;;;;;;5141644;27;20397;-28
2024/03/22 07:47:38;;;;;;;;;;;;;;;;;;5141537;27;19911;-28
2024/03/22 07:50:04;;;;;;;;;;;;;;;;;;5141962;27;19912;-28
2024/03/22 07:52:30;;;;;;;;;;;;;;;;;;5141673;27;19978;-28
2024/03/22 07:54:56;;;;;;;;;;;;;;;;;;5140803;27;19908;-29
2024/03/22 07:57:23;;;;;;;;;;;;;;;;;;5141129;27;19923;-30
2024/03/22 07:59:49;;;;;;;;;;;;;;;;;;5141294;27;19908;-28
2024/03/22 08:02:15;;;;;;;;;;;;;;;;;;5141145;27;20074;-29
2024/03/22 08:04:41;;;;;;;;;;;;;;;;;;5141257;27;19914;-29
2024/03/22 08:07:07;;;;;;;;;;;;;;;;;;5140566;27;19948;-28
2024/03/22 08:09:33;;;;;;;;;;;;;;;;;;5141218;27;19908;-29
2024/03/22 08:11:59;;;;;;;;;;;;;;;;;;5141264;27;19903;-29
2024/03/22 08:14:25;;;;;;;;;;;;;;;;;;5140782;27;19943;-29
2024/03/22 08:16:51;;;;;;;;;;;;;;;;;;5141169;27;19913;-28
2024/03/22 08:19:17;;;;;;;;;;;;;;;;;;5140980;27;19908;-28
2024/03/22 08:21:43;;;;;;;;;;;;;;;;;;5140722;27;20375;-29
2024/03/22 08:24:09;;;;;;;;;;;;;;;;;;5140716;27;20362;-29
2024/03/22 08:26:35;;;;;;;;;;;;;;;;;;5140795;27;19964;-28
2024/03/22 08:29:01;;;;;;;;;;;;;;;;;;5140571;27;19913;-30
2024/03/22 08:31:28;;;;;;;;;;;;;;;;;;5140779;27;19904;-28
2024/03/22 08:33:55;;;;;;;;;;;;;;;;;;5140386;27;19912;-29
2024/03/22 08:36:21;;;;;;;;;;;;;;;;;;5140546;27;19903;-30
2024/03/22 08:38:47;;;;;;;;;;;;;;;;;;5140717;27;20366;-31
2024/03/22 08:41:13;;;;;;;;;;;;;;;;;;5140335;27;20388;-28
2024/03/22 08:43:39;;;;;;;;;;;;;;;;;;5139405;27;19907;-31
2024/03/22 08:46:05;;;;;;;;;;;;;;;;;;5140022;27;19960;-28
2024/03/22 08:48:31;;;;;;;;;;;;;;;;;;5140367;27;19911;-33
2024/03/22 08:50:57;;;;;;;;;;;;;;;;;;5140078;27;19908;-29
2024/03/22 08:53:24;;;;;;;;;;;;;;;;;;5139770;27;19960;-29
2024/03/22 08:55:50;;;;;;;;;;;;;;;;;;5139800;27;19951;-28
2024/03/22 08:58:17;;;;;;;;;;;;;;;;;;5140075;27;19957;-28
2024/03/22 09:00:43;;;;;;;;;;;;;;;;;;5139895;27;19961;-28
2024/03/22 09:03:09;;;;;;;;;;;;;;;;;;5139899;27;19912;-28
2024/03/22 09:05:47;;;;;;;;;;;;;;;;;;5095818;27;19912;-28
2024/03/22 09:08:13;;;;;;;;;;;;;;;;;;5095398;28;19955;-29
2024/03/22 09:10:39;;;;;;;;;;;;;;;;;;5095567;28;19908;-28
2024/03/22 09:13:05;;;;;;;;;;;;;;;;;;5095101;28;19985;-30
2024/03/22 09:15:31;;;;;;;;;;;;;;;;;;5095437;28;19934;-28
2024/03/22 09:17:57;;;;;;;;;;;;;;;;;;5095233;28;19986;-28
2024/03/22 09:20:23;;;;;;;;;;;;;;;;;;5095468;28;19951;-27
2024/03/22 09:22:49;;;;;;;;;;;;;;;;;;5095040;28;20320;-28
2024/03/22 09:25:15;;;;;;;;;;;;;;;;;;5095220;28;20043;-28
2024/03/22 09:27:41;;;;;;;;;;;;;;;;;;5095222;28;19926;-27
2024/03/22 09:30:07;;;;;;;;;;;;;;;;;;5094743;28;20272;-28
2024/03/22 09:32:33;;;;;;;;;;;;;;;;;;5095178;28;19909;-28
2024/03/22 09:34:59;;;;;;;;;;;;;;;;;;5095078;28;19912;-27
2024/03/22 09:37:26;;;;;;;;;;;;;;;;;;5094753;28;19916;-27
2024/03/22 09:39:52;;;;;;;;;;;;;;;;;;5094831;28;19930;-28
2024/03/22 09:42:18;;;;;;;;;;;;;;;;;;5095124;28;20271;-27
2024/03/22 09:44:44;;;;;;;;;;;;;;;;;;5094640;28;19912;-27
2024/03/22 09:47:10;;;;;;;;;;;;;;;;;;5094682;28;19915;-29
2024/03/22 09:49:36;;;;;;;;;;;;;;;;;;5094859;28;19908;-29
2024/03/22 09:52:02;;;;;;;;;;;;;;;;;;5094787;28;19909;-28
2024/03/22 09:54:28;;;;;;;;;;;;;;;;;;5094648;28;20311;-27
2024/03/22 09:56:54;;;;;;;;;;;;;;;;;;5094423;28;19909;-28
2024/03/22 09:59:20;;;;;;;;;;;;;;;;;;5094609;28;19916;-29
2024/03/22 10:01:46;;;;;;;;;;;;;;;;;;5094797;28;19944;-30
2024/03/22 10:04:12;;;;;;;;;;;;;;;;;;5101652;28;19920;-28
2024/03/22 10:06:37;;;;;;;;;;;;;;;;;;5114761;28;19912;-28
2024/03/22 10:09:04;;;;;;;;;;;;;;;;;;5114226;28;19914;-31
2024/03/22 10:11:30;;;;;;;;;;;;;;;;;;5114390;28;19938;-28
2024/03/22 10:13:56;;;;;;;;;;;;;;;;;;5114361;28;19913;-29
2024/03/22 10:16:22;;;;;;;;;;;;;;;;;;5104972;28;19952;-29
2024/03/22 10:18:48;;;;;;;;;;;;;;;;;;5082564;28;20383;-28
2024/03/22 10:21:14;;;;;;;;;;;;;;;;;;5101080;28;20010;-28
2024/03/22 10:23:40;;;;;;;;;;;;;;;;;;5100926;28;19927;-28
2024/03/22 10:26:06;;;;;;;;;;;;;;;;;;5101025;28;19908;-28
2024/03/22 10:28:32;;;;;;;;;;;;;;;;;;5100554;28;20245;-28
2024/03/22 10:30:58;;;;;;;;;;;;;;;;;;5100808;28;19917;-29
2024/03/22 10:33:24;;;;;;;;;;;;;;;;;;5100820;28;19908;-28
2024/03/22 10:35:50;;;;;;;;;;;;;;;;;;5100698;28;19908;-29
2024/03/22 10:38:16;;;;;;;;;;;;;;;;;;5100954;28;19908;-28
2024/03/22 10:40:42;;;;;;;;;;;;;;;;;;5100259;28;19908;-27
2024/03/22 10:43:08;;;;;;;;;;;;;;;;;;5099767;28;19923;-27
2024/03/22 10:45:34;;;;;;;;;;;;;;;;;;5081382;28;19908;-29
2024/03/22 10:48:03;;;;;;;;;;;;;;;;;;5100120;28;20481;-27
2024/03/22 10:50:29;;;;;;;;;;;;;;;;;;5099672;28;19908;-28
2024/03/22 10:52:55;;;;;;;;;;;;;;;;;;5100366;28;19998;-27
2024/03/22 10:55:21;;;;;;;;;;;;;;;;;;5100220;28;19912;-27
2024/03/22 10:57:47;;;;;;;;;;;;;;;;;;5100018;28;19953;-28
2024/03/22 11:00:15;;;;;;;;;;;;;;;;;;5100356;28;19908;-29
2024/03/22 11:02:41;;;;;;;;;;;;;;;;;;5100109;28;19908;-28
2024/03/22 11:05:07;;;;;;;;;;;;;;;;;;5081619;28;19927;-29
2024/03/22 11:07:33;;;;;;;;;;;;;;;;;;5099798;28;19935;-28
2024/03/22 11:09:59;;;;;;;;;;;;;;;;;;5099974;28;19934;-27
2024/03/22 11:12:25;;;;;;;;;;;;;;;;;;5099641;28;19912;-28
2024/03/22 11:14:51;;;;;;;;;;;;;;;;;;5099450;28;20398;-27
2024/03/22 11:17:18;;;;;;;;;;;;;;;;;;5099631;28;19908;-29
2024/03/22 11:19:44;;;;;;;;;;;;;;;;;;5099677;28;19956;-28
2024/03/22 11:22:11;;;;;;;;;;;;;;;;;;5099829;28;19908;-29
2024/03/22 11:24:37;;;;;;;;;;;;;;;;;;5099373;28;20382;-28
2024/03/22 11:27:06;;;;;;;;;;;;;;;;;;5098697;28;19991;-28
2024/03/22 11:29:32;;;;;;;;;;;;;;;;;;5099246;28;20369;-28
2024/03/22 11:31:58;;;;;;;;;;;;;;;;;;5099426;28;19965;-27
2024/03/22 11:34:24;;;;;;;;;;;;;;;;;;5099673;28;19912;-27
2024/03/22 11:36:50;;;;;;;;;;;;;;;;;;5099337;28;19908;-28
2024/03/22 11:39:17;;;;;;;;;;;;;;;;;;5099748;28;19912;-28
2024/03/22 11:41:43;;;;;;;;;;;;;;;;;;5098995;28;19908;-28
2024/03/22 11:44:09;;;;;;;;;;;;;;;;;;5099542;28;20036;-27
2024/03/22 11:46:35;;;;;;;;;;;;;;;;;;5099055;28;19915;-27
2024/03/22 11:49:01;;;;;;;;;;;;;;;;;;5099154;28;19931;-29
2024/03/22 11:51:27;;;;;;;;;;;;;;;;;;5099002;28;19908;-27
2024/03/22 11:53:55;;;;;;;;;;;;;;;;;;5099206;28;20006;-27
2024/03/22 11:56:21;;;;;;;;;;;;;;;;;;5099137;28;19908;-28
2024/03/22 11:58:48;;;;;;;;;;;;;;;;;;5099188;28;19904;-27
2024/03/22 12:01:14;;;;;;;;;;;;;;;;;;5098984;28;19916;-29
2024/03/22 12:03:40;;;;;;;;;;;;;;;;;;5080276;28;19920;-30
2024/03/22 12:06:06;;;;;;;;;;;;;;;;;;5098822;28;19908;-28
2024/03/22 12:08:32;;;;;;;;;;;;;;;;;;5098765;28;20382;-29
2024/03/22 12:10:58;;;;;;;;;;;;;;;;;;5098999;28;19915;-28
2024/03/22 12:13:24;;;;;;;;;;;;;;;;;;5098396;28;19991;-29
2024/03/22 12:15:50;;;;;;;;;;;;;;;;;;5098801;28;19993;-28
2024/03/22 12:18:16;;;;;;;;;;;;;;;;;;5098568;28;19930;-28
2024/03/22 12:20:42;;;;;;;;;;;;;;;;;;5098704;28;19908;-28
2024/03/22 12:23:08;;;;;;;;;;;;;;;;;;5098835;28;20283;-29
2024/03/22 12:25:35;;;;;;;;;;;;;;;;;;5098421;28;20290;-27
2024/03/22 12:28:00;;;;;;;;;;;;;;;;;;5098433;28;19908;-27
2024/03/22 12:30:27;;;;;;;;;;;;;;;;;;5098537;28;20363;-28
2024/03/22 12:32:53;;;;;;;;;;;;;;;;;;5079972;28;20354;-28
2024/03/22 12:35:19;;;;;;;;;;;;;;;;;;5098383;28;19962;-28
2024/03/22 12:37:45;;;;;;;;;;;;;;;;;;5098243;28;20379;-30
2024/03/22 12:40:11;;;;;;;;;;;;;;;;;;5098156;28;19918;-28
2024/03/22 12:42:37;;;;;;;;;;;;;;;;;;5098104;28;19908;-28
2024/03/22 12:45:03;;;;;;;;;;;;;;;;;;5098547;28;19908;-30
2024/03/22 12:47:29;;;;;;;;;;;;;;;;;;5098007;28;19911;-29
2024/03/22 12:49:55;;;;;;;;;;;;;;;;;;5097687;28;19908;-28
2024/03/22 12:52:21;;;;;;;;;;;;;;;;;;5098101;28;19905;-28
2024/03/22 12:54:47;;;;;;;;;;;;;;;;;;5098347;28;20330;-27
2024/03/22 12:57:13;;;;;;;;;;;;;;;;;;5097905;28;19954;-29
2024/03/22 12:59:39;;;;;;;;;;;;;;;;;;5098208;28;19999;-29
2024/03/22 13:02:05;;;;;;;;;;;;;;;;;;5098163;28;19949;-32
2024/03/22 13:04:31;;;;;;;;;;;;;;;;;;5097598;28;20291;-28
2024/03/22 13:06:57;;;;;;;;;;;;;;;;;;5097861;28;19908;-28
2024/03/22 13:09:24;;;;;;;;;;;;;;;;;;5098319;28;20469;-28
2024/03/22 13:11:50;;;;;;;;;;;;;;;;;;5097674;28;20364;-28
2024/03/22 13:14:15;;;;;;;;;;;;;;;;;;5097523;28;19977;-30
2024/03/22 13:16:41;;;;;;;;;;;;;;;;;;5097978;28;19908;-29
2024/03/22 13:19:13;;;;;;;;;;;;;;;;;;5098202;28;19915;-27
2024/03/22 13:21:39;;;;;;;;;;;;;;;;;;5097674;28;19951;-27
2024/03/22 13:24:05;;;;;;;;;;;;;;;;;;5097833;28;19912;-29
2024/03/22 13:26:31;;;;;;;;;;;;;;;;;;5079375;28;19912;-28
2024/03/22 13:28:57;;;;;;;;;;;;;;;;;;5097919;28;19908;-28
2024/03/22 13:31:23;;;;;;;;;;;;;;;;;;5098168;28;20417;-28
2024/03/22 13:33:49;;;;;;;;;;;;;;;;;;5097606;28;19912;-28
2024/03/22 13:36:15;;;;;;;;;;;;;;;;;;5097694;28;20366;-27
2024/03/22 13:38:40;;;;;;;;;;;;;;;;;;5098167;28;19915;-28
2024/03/22 13:41:06;;;;;;;;;;;;;;;;;;5097843;28;19908;-27
2024/03/22 13:43:32;;;;;;;;;;;;;;;;;;5097821;28;19908;-29
2024/03/22 13:45:59;;;;;;;;;;;;;;;;;;5097609;28;19908;-29
2024/03/22 13:48:25;;;;;;;;;;;;;;;;;;5097598;28;19920;-30
2024/03/22 13:50:51;;;;;;;;;;;;;;;;;;5098778;28;19913;-28
2024/03/22 13:53:17;;;;;;;;;;;;;;;;;;5101851;28;19915;-28
2024/03/22 13:55:42;;;;;;;;;;;;;;;;;;5101261;28;20363;-28
2024/03/22 13:58:08;;;;;;;;;;;;;;;;;;5101333;28;19915;-27
2024/03/22 14:00:35;;;;;;;;;;;;;;;;;;5101435;28;19908;-28
2024/03/22 14:03:01;;;;;;;;;;;;;;;;;;5100926;28;20439;-28
2024/03/22 14:05:27;;;;;;;;;;;;;;;;;;5100760;28;19920;-28
2024/03/22 14:07:54;;;;;;;;;;;;;;;;;;5101551;28;20011;-28
2024/03/22 14:10:20;;;;;;;;;;;;;;;;;;5101079;28;19904;-28
2024/03/22 14:12:46;;;;;;;;;;;;;;;;;;5100790;28;20329;-29
2024/03/22 14:15:12;;;;;;;;;;;;;;;;;;5101082;28;19919;-30
2024/03/22 14:17:38;;;;;;;;;;;;;;;;;;5101323;28;19908;-28
2024/03/22 14:20:11;;;;;;;;;;;;;;;;;;5101111;28;19934;-28
2024/03/22 14:22:37;;;;;;;;;;;;;;;;;;5101023;28;19930;-28
2024/03/22 14:25:03;;;;;;;;;;;;;;;;;;5101303;28;20301;-28
2024/03/22 14:27:29;;;;;;;;;;;;;;;;;;5100691;28;19904;-27
2024/03/22 14:29:55;;;;;;;;;;;;;;;;;;5100881;28;19995;-30
2024/03/22 14:32:21;;;;;;;;;;;;;;;;;;5101157;28;20263;-28
2024/03/22 14:34:47;;;;;;;;;;;;;;;;;;5100695;28;19919;-28
2024/03/22 14:37:13;;;;;;;;;;;;;;;;;;5100993;28;20360;-28
2024/03/22 14:39:41;;;;;;;;;;;;;;;;;;5100305;28;19912;-28
2024/03/22 14:42:07;;;;;;;;;;;;;;;;;;5100384;28;19931;-28
2024/03/22 14:44:33;;;;;;;;;;;;;;;;;;5100182;28;19904;-28
2024/03/22 14:46:59;;;;;;;;;;;;;;;;;;5100458;28;20267;-29
2024/03/22 14:49:26;;;;;;;;;;;;;;;;;;5100633;28;19908;-28
2024/03/22 14:51:52;;;;;;;;;;;;;;;;;;5100171;28;19915;-27
2024/03/22 14:54:17;;;;;;;;;;;;;;;;;;5100150;28;20260;-29
2024/03/22 14:56:43;;;;;;;;;;;;;;;;;;5100254;28;19908;-28
2024/03/22 14:59:09;;;;;;;;;;;;;;;;;;5100002;28;19904;-28
2024/03/22 15:01:35;;;;;;;;;;;;;;;;;;5099729;28;19908;-28
2024/03/22 15:04:01;;;;;;;;;;;;;;;;;;5099673;28;19924;-28
2024/03/22 15:06:30;;;;;;;;;;;;;;;;;;5099833;28;20294;-28
2024/03/22 15:08:57;;;;;;;;;;;;;;;;;;5081629;28;19915;-28
2024/03/22 15:11:23;;;;;;;;;;;;;;;;;;5099892;28;19904;-29
2024/03/22 15:13:49;;;;;;;;;;;;;;;;;;5099779;28;19920;-28
2024/03/22 15:16:15;;;;;;;;;;;;;;;;;;5099997;28;19912;-30
2024/03/22 15:18:41;;;;;;;;;;;;;;;;;;5100199;28;19911;-27
2024/03/22 15:21:07;;;;;;;;;;;;;;;;;;5100042;28;19914;-27
2024/03/22 15:23:33;;;;;;;;;;;;;;;;;;5099205;28;20286;-28
2024/03/22 15:25:59;;;;;;;;;;;;;;;;;;5099847;28;19930;-28
2024/03/22 15:28:25;;;;;;;;;;;;;;;;;;5081214;28;19930;-28
2024/03/22 15:30:51;;;;;;;;;;;;;;;;;;5099474;28;19908;-28
2024/03/22 15:33:17;;;;;;;;;;;;;;;;;;5099708;28;19908;-28
2024/03/22 15:35:49;;;;;;;;;;;;;;;;;;5099212;28;19957;-28
2024/03/22 15:38:15;;;;;;;;;;;;;;;;;;5099827;28;19947;-27
2024/03/22 15:40:42;;;;;;;;;;;;;;;;;;5099290;28;19908;-27
2024/03/22 15:43:08;;;;;;;;;;;;;;;;;;5099687;28;19908;-29
2024/03/22 15:45:36;;;;;;;;;;;;;;;;;;5081038;28;19923;-29
2024/03/22 15:48:02;;;;;;;;;;;;;;;;;;5099345;28;19908;-28
2024/03/22 15:50:28;;;;;;;;;;;;;;;;;;5099412;28;19908;-28
2024/03/22 15:52:54;;;;;;;;;;;;;;;;;;5099023;28;19904;-30
2024/03/22 15:55:20;;;;;;;;;;;;;;;;;;5099141;28;20328;-27
2024/03/22 15:57:46;;;;;;;;;;;;;;;;;;5099099;28;20302;-28
2024/03/22 16:00:12;;;;;;;;;;;;;;;;;;5098973;28;19942;-29
2024/03/22 16:02:38;;;;;;;;;;;;;;;;;;5099038;28;19994;-28
2024/03/22 16:05:05;;;;;;;;;;;;;;;;;;5098613;28;20345;-27
2024/03/22 16:07:31;;;;;;;;;;;;;;;;;;5098964;28;19912;-28
2024/03/22 16:09:57;;;;;;;;;;;;;;;;;;5098544;28;20387;-29
2024/03/22 16:12:23;;;;;;;;;;;;;;;;;;5098687;28;19911;-28
2024/03/22 16:14:49;;;;;;;;;;;;;;;;;;5098552;28;19912;-28
2024/03/22 16:17:15;;;;;;;;;;;;;;;;;;5098825;28;20057;-28
2024/03/22 16:19:41;;;;;;;;;;;;;;;;;;5098714;28;20362;-28
2024/03/22 16:22:07;;;;;;;;;;;;;;;;;;5098515;28;19908;-29
2024/03/22 16:24:34;;;;;;;;;;;;;;;;;;5098503;28;19931;-28
2024/03/22 16:27:00;;;;;;;;;;;;;;;;;;5098301;28;20425;-28
2024/03/22 16:29:26;;;;;;;;;;;;;;;;;;5098465;28;20007;-27
2024/03/22 16:31:52;;;;;;;;;;;;;;;;;;5098797;28;20286;-28
2024/03/22 16:34:18;;;;;;;;;;;;;;;;;;5079879;28;19912;-28
2024/03/22 16:36:44;;;;;;;;;;;;;;;;;;5098282;28;19995;-28